Time;durP1;ratioP1;P1;durP2;ratioP2;P2;SDS_P1;SDS_P2;PMS_P1;PMS_P2;Temp;Humidity;BMP_temperature;BMP_pressure;BME280_temperature;BME280_humidity;BME280_pressure;Samples;Min_cycle;Max_cycle;Signal;HPM_P1;HPM_P2
2022/03/04 00:00:54;;;;;;;40.22;21.38;;;;;;;-3.98;75.67;93063.25;5112686;28;20031;-67
2022/03/04 00:03:19;;;;;;;28.30;16.92;;;;;;;-3.69;75.13;93070.59;5081455;28;20590;-61
2022/03/04 00:05:44;;;;;;;25.88;15.45;;;;;;;-3.76;74.01;93073.66;5092434;28;20058;-61
2022/03/04 00:08:10;;;;;;;22.85;13.43;;;;;;;-3.74;73.78;93070.50;5091807;28;20020;-61
2022/03/04 00:10:36;;;;;;;24.23;12.90;;;;;;;-4.13;73.77;93070.59;5092009;28;20031;-61
2022/03/04 00:13:01;;;;;;;24.60;15.68;;;;;;;-3.94;74.14;93065.75;5074042;28;20078;-61
2022/03/04 00:15:27;;;;;;;40.03;23.15;;;;;;;-3.76;74.82;93062.88;5091733;28;20020;-61
2022/03/04 00:17:52;;;;;;;41.92;23.85;;;;;;;-3.79;74.21;93066.53;5091701;28;20023;-61
2022/03/04 00:20:18;;;;;;;68.20;34.47;;;;;;;-3.61;73.98;93071.69;5091737;28;20055;-62
2022/03/04 00:22:44;;;;;;;50.38;28.00;;;;;;;-3.70;72.80;93068.38;5091959;28;20027;-61
2022/03/04 00:25:10;;;;;;;28.15;15.48;;;;;;;-3.81;72.33;93070.88;5091836;28;20412;-60
2022/03/04 00:27:35;;;;;;;23.90;14.48;;;;;;;-3.79;71.73;93073.88;5091920;28;20020;-61
2022/03/04 00:30:01;;;;;;;39.90;14.85;;;;;;;-4.02;72.35;93061.94;5091856;28;20016;-61
2022/03/04 00:32:27;;;;;;;22.48;12.60;;;;;;;-4.09;72.59;93057.69;5090603;28;20542;-61
2022/03/04 00:34:53;;;;;;;16.52;10.43;;;;;;;-4.37;72.81;93061.09;5091341;28;20027;-60
2022/03/04 00:37:18;;;;;;;18.85;10.43;;;;;;;-4.32;72.95;93065.84;5091220;28;20026;-61
2022/03/04 00:39:44;;;;;;;23.63;13.63;;;;;;;-4.09;72.44;93063.06;5091125;28;20051;-60
2022/03/04 00:42:10;;;;;;;26.20;13.25;;;;;;;-4.23;72.49;93054.97;5110801;28;20027;-60
2022/03/04 00:44:35;;;;;;;24.70;13.07;;;;;;;-4.46;73.39;93063.88;5111925;28;20650;-60
2022/03/04 00:47:01;;;;;;;23.20;12.52;;;;;;;-4.28;73.71;93063.69;5111743;28;20054;-60
2022/03/04 00:49:26;;;;;;;17.95;10.27;;;;;;;-4.45;73.67;93066.09;5111342;28;20027;-60
2022/03/04 00:51:52;;;;;;;18.55;10.98;;;;;;;-4.64;74.08;93064.78;5111496;28;20030;-61
2022/03/04 00:54:18;;;;;;;23.20;12.73;;;;;;;-4.78;74.39;93055.44;5111806;28;20023;-60
2022/03/04 00:56:43;;;;;;;19.60;11.98;;;;;;;-4.94;75.64;93050.50;5111121;28;20508;-61
2022/03/04 00:59:09;;;;;;;24.05;13.68;;;;;;;-4.78;76.01;93047.38;5111712;28;20043;-61
2022/03/04 01:01:34;;;;;;;24.20;14.60;;;;;;;-4.70;75.34;93053.88;5111413;28;20492;-60
2022/03/04 01:04:00;;;;;;;34.08;16.52;;;;;;;-4.72;74.98;93056.28;5092179;28;20027;-59
2022/03/04 01:06:25;;;;;;;43.45;20.35;;;;;;;-4.63;74.51;93042.00;5091057;28;20023;-62
2022/03/04 01:08:51;;;;;;;38.13;19.50;;;;;;;-4.60;73.53;93043.78;5090674;28;20137;-59
2022/03/04 01:11:16;;;;;;;17.90;10.77;;;;;;;-4.58;72.56;93041.38;5091087;28;20024;-59
2022/03/04 01:13:42;;;;;;;20.92;11.38;;;;;;;-4.79;72.69;93050.53;5090703;28;20036;-59
2022/03/04 01:16:07;;;;;;;27.85;15.10;;;;;;;-4.76;73.16;93041.50;5090600;28;20024;-59
2022/03/04 01:18:32;;;;;;;27.85;15.25;;;;;;;-4.61;72.87;93043.03;5090965;28;20032;-59
2022/03/04 01:20:58;;;;;;;29.55;16.80;;;;;;;-4.41;72.96;93037.03;5090432;28;20475;-59
2022/03/04 01:23:23;;;;;;;29.15;15.68;;;;;;;-4.36;72.25;93035.63;5090532;28;20016;-59
2022/03/04 01:25:52;;;;;;;25.58;13.98;;;;;;;-4.30;73.21;93033.78;5090780;28;20008;-59
2022/03/04 01:28:19;;;;;;;26.80;14.57;;;;;;;-4.44;73.78;93032.56;5090713;28;20460;-60
2022/03/04 01:30:44;;;;;;;32.80;16.13;;;;;;;-4.58;73.82;93030.59;5090349;28;20055;-60
2022/03/04 01:33:10;;;;;;;32.95;17.30;;;;;;;-4.68;73.72;93029.91;5090344;28;20055;-60
2022/03/04 01:35:36;;;;;;;31.95;16.70;;;;;;;-4.81;74.07;93037.50;5090677;28;20103;-60
2022/03/04 01:38:02;;;;;;;23.48;13.98;;;;;;;-4.61;72.48;93026.13;5090656;28;20409;-59
2022/03/04 01:40:27;;;;;;;29.70;17.15;;;;;;;-4.60;73.19;93024.94;5096588;28;20431;-59
2022/03/04 01:42:53;;;;;;;30.70;15.52;;;;;;;-4.67;73.36;93019.91;5092403;28;20412;-59
2022/03/04 01:45:19;;;;;;;32.13;17.95;;;;;;;-4.59;72.89;93020.28;5110882;28;20019;-59
2022/03/04 01:47:44;;;;;;;25.55;15.60;;;;;;;-4.44;73.62;93021.06;5109939;28;20061;-59
2022/03/04 01:50:10;;;;;;;27.77;16.48;;;;;;;-4.82;73.59;93022.56;5110558;28;20480;-59
2022/03/04 01:52:36;;;;;;;28.02;16.00;;;;;;;-4.81;74.83;93020.63;5110503;28;20439;-58
2022/03/04 01:55:02;;;;;;;26.33;15.48;;;;;;;-4.88;75.24;93018.28;5110125;28;20054;-59
2022/03/04 01:57:28;;;;;;;21.55;14.23;;;;;;;-4.66;74.28;93030.19;5110461;28;20024;-60
2022/03/04 01:59:53;;;;;;;22.58;14.15;;;;;;;-4.70;74.13;93020.84;5100085;28;20039;-61
2022/03/04 02:02:18;;;;;;;21.75;13.10;;;;;;;-4.68;73.75;93021.84;5085609;28;20020;-60
2022/03/04 02:04:44;;;;;;;19.08;11.18;;;;;;;-4.60;73.50;93016.84;5070170;28;20398;-60
2022/03/04 02:07:09;;;;;;;21.30;12.45;;;;;;;-4.64;73.66;93019.72;5069867;28;20528;-60
2022/03/04 02:09:35;;;;;;;23.13;11.80;;;;;;;-4.71;73.82;93022.03;5070143;28;20025;-60
2022/03/04 02:12:00;;;;;;;16.58;10.30;;;;;;;-4.92;73.28;93005.00;5070063;28;20505;-60
2022/03/04 02:14:26;;;;;;;20.05;10.57;;;;;;;-4.81;73.73;93012.53;5070218;28;20020;-60
2022/03/04 02:16:53;;;;;;;18.35;12.32;;;;;;;-4.71;73.53;92995.84;5088987;28;20020;-60
2022/03/04 02:19:20;;;;;;;28.83;15.07;;;;;;;-4.68;73.99;92997.59;5072499;28;20498;-60
2022/03/04 02:21:54;;;;;;;23.13;13.98;;;;;;;-4.64;74.08;93002.81;5069741;28;20497;-60
2022/03/04 02:24:22;;;;;;;32.75;16.92;;;;;;;-4.64;73.37;92995.50;5069930;28;20086;-60
2022/03/04 02:26:48;;;;;;;47.05;26.80;;;;;;;-4.54;72.45;92996.13;5069892;28;20024;-60
2022/03/04 02:29:14;;;;;;;50.17;26.33;;;;;;;-4.68;72.20;92984.13;5069658;28;20515;-60
2022/03/04 02:31:39;;;;;;;43.28;22.08;;;;;;;-4.69;72.65;92977.28;5069866;28;20024;-60
2022/03/04 02:34:05;;;;;;;46.53;22.88;;;;;;;-4.69;72.47;93006.91;5069863;28;20047;-62
2022/03/04 02:36:30;;;;;;;38.15;21.83;;;;;;;-4.45;72.13;93001.44;5069523;28;20028;-61
2022/03/04 02:38:56;;;;;;;41.95;21.92;;;;;;;-4.51;72.37;92997.16;5069835;28;20027;-61
2022/03/04 02:41:21;;;;;;;44.30;23.25;;;;;;;-4.57;72.79;92993.63;5097024;28;20485;-61
2022/03/04 02:43:47;;;;;;;52.38;24.30;;;;;;;-4.56;72.60;93003.94;5110349;28;20020;-61
2022/03/04 02:46:13;;;;;;;42.28;22.70;;;;;;;-4.75;73.46;93002.63;5110351;28;20020;-60
2022/03/04 02:48:39;;;;;;;45.85;23.00;;;;;;;-4.77;73.46;93002.34;5110296;28;20020;-61
2022/03/04 02:51:05;;;;;;;37.35;20.13;;;;;;;-4.73;73.40;93003.66;5110333;28;20506;-61
2022/03/04 02:53:30;;;;;;;34.90;17.63;;;;;;;-4.99;74.78;92991.13;5110334;28;20051;-61
2022/03/04 02:55:56;;;;;;;37.67;20.45;;;;;;;-5.08;74.54;92970.44;5109897;28;20498;-60
2022/03/04 02:58:21;;;;;;;33.42;19.17;;;;;;;-4.96;74.37;92996.34;5109119;28;20098;-61
2022/03/04 03:00:47;;;;;;;31.63;18.05;;;;;;;-4.76;73.86;92996.47;5109947;28;20026;-61
2022/03/04 03:03:13;;;;;;;36.45;17.48;;;;;;;-4.58;72.99;92994.81;5097433;28;20020;-61
2022/03/04 03:05:38;;;;;;;33.85;18.13;;;;;;;-4.55;72.28;92991.22;5089941;28;20020;-61
2022/03/04 03:08:04;;;;;;;31.00;17.92;;;;;;;-4.61;72.22;92991.09;5089477;28;20020;-62
2022/03/04 03:10:31;;;;;;;32.40;15.98;;;;;;;-4.63;72.45;92991.56;5089812;28;20064;-62
2022/03/04 03:12:57;;;;;;;48.50;22.60;;;;;;;-4.65;72.85;92991.31;5092011;28;20048;-61
2022/03/04 03:15:22;;;;;;;50.10;26.25;;;;;;;-4.62;73.65;92993.06;5092921;28;20420;-62
2022/03/04 03:17:47;;;;;;;60.92;29.52;;;;;;;-4.57;72.84;92999.03;5088334;28;20025;-61
2022/03/04 03:20:13;;;;;;;50.65;27.65;;;;;;;-4.71;72.58;92979.69;5072571;28;20024;-62
2022/03/04 03:22:39;;;;;;;61.63;31.92;;;;;;;-4.79;72.33;92997.41;5072640;28;20035;-61
2022/03/04 03:25:04;;;;;;;71.28;35.00;;;;;;;-4.80;72.21;93005.94;5072923;28;20036;-61
2022/03/04 03:27:30;;;;;;;62.53;32.40;;;;;;;-4.56;71.78;93005.88;5072752;28;20111;-61
2022/03/04 03:29:55;;;;;;;67.38;33.40;;;;;;;-4.46;71.81;93002.63;5072874;28;20032;-60
2022/03/04 03:32:21;;;;;;;59.00;30.10;;;;;;;-4.67;71.97;93001.78;5072293;28;20032;-60
2022/03/04 03:34:46;;;;;;;47.75;27.20;;;;;;;-4.64;71.75;93000.88;5077742;28;20057;-60
2022/03/04 03:37:12;;;;;;;58.03;28.35;;;;;;;-4.61;71.07;93002.63;5083185;28;20028;-60
2022/03/04 03:39:37;;;;;;;35.17;21.73;;;;;;;-4.83;72.01;93001.50;5081917;28;20054;-60
2022/03/04 03:42:05;;;;;;;30.63;19.52;;;;;;;-4.88;72.32;93010.94;5083649;28;20047;-60
2022/03/04 03:44:30;;;;;;;24.80;15.88;;;;;;;-5.07;72.83;93006.16;5092405;28;20443;-60
2022/03/04 03:46:56;;;;;;;23.35;12.35;;;;;;;-4.89;72.37;93011.38;5092607;28;20028;-60
2022/03/04 03:49:21;;;;;;;20.92;12.30;;;;;;;-4.80;71.44;93014.78;5092652;28;20046;-60
2022/03/04 03:51:47;;;;;;;19.80;11.27;;;;;;;-5.09;72.33;93003.91;5092657;28;20024;-60
2022/03/04 03:54:13;;;;;;;23.10;13.25;;;;;;;-5.18;72.33;93012.06;5092621;28;20027;-60
2022/03/04 03:56:38;;;;;;;30.98;15.55;;;;;;;-5.05;73.27;93017.97;5091885;28;20059;-62
2022/03/04 03:59:04;;;;;;;32.10;16.92;;;;;;;-4.97;73.04;93011.00;5092446;28;20032;-60
2022/03/04 04:01:30;;;;;;;26.48;16.40;;;;;;;-4.90;73.55;93007.97;5092426;28;20046;-61
2022/03/04 04:03:55;;;;;;;38.15;19.80;;;;;;;-4.86;72.19;93013.16;5092294;28;20042;-61
2022/03/04 04:06:20;;;;;;;33.35;17.80;;;;;;;-4.85;72.56;93006.59;5092279;28;20524;-56
2022/03/04 04:08:46;;;;;;;28.92;16.73;;;;;;;-4.84;72.74;93008.06;5091170;28;20413;-60
2022/03/04 04:11:12;;;;;;;31.42;17.80;;;;;;;-4.80;73.08;93012.06;5091644;28;20027;-59
2022/03/04 04:13:38;;;;;;;24.75;15.48;;;;;;;-4.86;72.60;93016.63;5092188;28;20028;-61
2022/03/04 04:16:03;;;;;;;28.83;17.13;;;;;;;-4.88;72.72;93015.59;5091599;28;20047;-59
2022/03/04 04:18:29;;;;;;;33.85;15.35;;;;;;;-4.97;73.56;93012.97;5081227;28;20505;-60
2022/03/04 04:20:55;;;;;;;21.95;13.52;;;;;;;-5.09;73.43;93011.97;5071355;28;20032;-60
2022/03/04 04:23:20;;;;;;;25.70;14.27;;;;;;;-4.80;72.60;93017.47;5071148;28;20032;-60
2022/03/04 04:25:45;;;;;;;20.27;12.75;;;;;;;-4.97;72.27;93021.78;5071725;28;20524;-59
2022/03/04 04:28:11;;;;;;;23.10;13.05;;;;;;;-5.04;72.12;93011.34;5076809;28;20024;-59
2022/03/04 04:30:36;;;;;;;30.05;15.63;;;;;;;-5.27;72.84;93019.44;5091882;28;20555;-59
2022/03/04 04:33:02;;;;;;;28.20;12.88;;;;;;;-5.23;73.18;93017.31;5091590;28;20028;-60
2022/03/04 04:35:27;;;;;;;32.22;16.70;;;;;;;-5.07;72.70;93019.63;5091375;28;20028;-60
2022/03/04 04:37:53;;;;;;;39.28;17.95;;;;;;;-5.20;72.65;92992.94;5091383;28;20035;-59
2022/03/04 04:40:18;;;;;;;44.10;22.88;;;;;;;-5.15;72.75;93021.91;5096278;28;20020;-60
2022/03/04 04:42:44;;;;;;;51.25;23.25;;;;;;;-5.27;73.50;93001.38;5112006;28;20511;-60
2022/03/04 04:45:10;;;;;;;35.63;18.55;;;;;;;-5.18;73.71;93020.16;5111953;28;20024;-59
2022/03/04 04:47:37;;;;;;;33.13;18.67;;;;;;;-5.23;73.16;93030.78;5111650;28;20027;-59
2022/03/04 04:50:03;;;;;;;37.90;18.33;;;;;;;-5.19;72.51;93015.94;5111528;28;20023;-59
2022/03/04 04:52:28;;;;;;;31.75;15.38;;;;;;;-5.11;71.75;93021.75;5101180;28;20081;-59
2022/03/04 04:54:54;;;;;;;25.55;16.63;;;;;;;-5.06;71.77;93021.84;5091438;28;20032;-60
2022/03/04 04:57:19;;;;;;;38.47;18.33;;;;;;;-5.26;72.29;93015.56;5090711;28;20432;-60
2022/03/04 04:59:45;;;;;;;28.40;16.58;;;;;;;-5.37;73.21;93021.44;5091448;28;20475;-62
2022/03/04 05:02:10;;;;;;;41.67;20.60;;;;;;;-5.30;73.33;93021.09;5087637;28;20048;-62
2022/03/04 05:04:36;;;;;;;36.90;18.85;;;;;;;-5.24;74.13;93027.34;5070979;28;20020;-60
2022/03/04 05:07:02;;;;;;;47.90;25.52;;;;;;;-5.42;73.50;93022.09;5070942;28;20485;-61
2022/03/04 05:09:28;;;;;;;63.90;34.95;;;;;;;-5.44;73.27;93029.88;5070538;28;20532;-61
2022/03/04 05:11:53;;;;;;;90.53;42.63;;;;;;;-5.16;72.22;93030.44;5070514;28;20028;-56
2022/03/04 05:14:19;;;;;;;86.50;40.90;;;;;;;-5.10;71.97;93026.66;5070464;28;20035;-59
2022/03/04 05:16:44;;;;;;;108.50;50.47;;;;;;;-5.13;72.87;93027.56;5070568;28;20020;-59
2022/03/04 05:19:10;;;;;;;98.07;47.95;;;;;;;-5.00;72.80;93025.38;5070542;28;20044;-62
2022/03/04 05:21:35;;;;;;;146.40;58.70;;;;;;;-5.00;73.78;93030.78;5070341;28;20020;-60
2022/03/04 05:24:01;;;;;;;36.33;20.33;;;;;;;-5.11;73.45;93030.53;5070659;28;20081;-60
2022/03/04 05:26:27;;;;;;;35.00;19.23;;;;;;;-5.00;72.76;93033.47;5070253;28;20028;-61
2022/03/04 05:28:53;;;;;;;66.07;31.63;;;;;;;-4.84;72.30;93029.59;5070105;28;20453;-60
2022/03/04 05:31:18;;;;;;;64.60;31.30;;;;;;;-4.80;71.95;93032.88;5070531;28;20056;-60
2022/03/04 05:33:44;;;;;;;73.80;36.45;;;;;;;-4.73;72.92;93033.25;5070044;28;20029;-62
2022/03/04 05:36:09;;;;;;;69.68;32.75;;;;;;;-4.62;72.25;93028.09;5069712;28;20032;-61
2022/03/04 05:38:34;;;;;;;52.90;27.08;;;;;;;-4.46;71.69;93028.84;5070530;28;20028;-62
2022/03/04 05:41:00;;;;;;;40.33;23.38;;;;;;;-4.34;70.94;93031.28;5073589;28;20031;-61
2022/03/04 05:43:25;;;;;;;74.53;37.08;;;;;;;-4.42;70.64;93032.09;5111222;28;20022;-61
2022/03/04 05:45:51;;;;;;;69.88;36.72;;;;;;;-4.33;71.14;93034.72;5110654;28;20020;-61
2022/03/04 05:48:17;;;;;;;68.97;33.05;;;;;;;-4.17;70.54;93039.63;5110998;28;20032;-61
2022/03/04 05:50:43;;;;;;;111.13;49.55;;;;;;;-4.18;70.80;93036.19;5092716;28;20034;-61
2022/03/04 05:53:09;;;;;;;96.57;47.10;;;;;;;-4.32;71.71;93042.34;5110921;28;20462;-61
2022/03/04 05:55:34;;;;;;;70.80;33.22;;;;;;;-4.23;71.69;93046.91;5110446;28;20083;-61
2022/03/04 05:57:59;;;;;;;38.20;21.88;;;;;;;-4.28;71.57;93036.75;5111120;28;20122;-62
2022/03/04 06:00:26;;;;;;;35.10;16.63;;;;;;;-4.25;71.81;93041.22;5110631;28;20114;-61
2022/03/04 06:02:52;;;;;;;33.00;18.80;;;;;;;-4.23;71.92;93036.13;5101307;28;20062;-62
2022/03/04 06:05:17;;;;;;;46.10;25.90;;;;;;;-4.07;72.62;93057.22;5090101;28;20028;-62
2022/03/04 06:07:43;;;;;;;42.50;20.67;;;;;;;-3.97;71.71;93053.22;5090006;28;20035;-62
2022/03/04 06:10:09;;;;;;;35.80;18.83;;;;;;;-4.14;72.00;93041.41;5090425;28;20020;-62
2022/03/04 06:12:34;;;;;;;29.27;16.10;;;;;;;-3.89;71.60;93038.91;5090338;28;20485;-60
2022/03/04 06:15:00;;;;;;;29.98;15.38;;;;;;;-3.77;72.55;93047.16;5089934;28;20093;-61
2022/03/04 06:17:25;;;;;;;40.15;22.90;;;;;;;-3.70;73.54;93050.22;5088220;28;20043;-61
2022/03/04 06:19:51;;;;;;;50.30;23.30;;;;;;;-3.51;72.93;93048.06;5070021;28;20036;-61
2022/03/04 06:22:20;;;;;;;43.42;22.67;;;;;;;-3.33;70.40;93045.88;5069761;28;20029;-62
2022/03/04 06:24:46;;;;;;;46.53;23.45;;;;;;;-3.26;70.21;93050.13;5069487;28;20028;-62
2022/03/04 06:27:12;;;;;;;37.60;21.33;;;;;;;-3.04;71.04;93052.38;5069661;28;20032;-62
2022/03/04 06:29:37;;;;;;;35.22;20.15;;;;;;;-2.97;70.21;93033.09;5083852;28;20024;-62
2022/03/04 06:32:03;;;;;;;39.53;23.63;;;;;;;-2.79;70.37;93036.25;5071585;28;20271;-61
2022/03/04 06:34:28;;;;;;;82.47;36.78;;;;;;;-2.61;69.41;93035.97;5090083;28;20095;-61
2022/03/04 06:36:54;;;;;;;59.10;34.30;;;;;;;-2.43;68.27;93033.00;5089919;28;20038;-61
2022/03/04 06:39:20;;;;;;;89.85;44.95;;;;;;;-2.37;68.78;93022.22;5089521;28;20113;-59
2022/03/04 06:41:45;;;;;;;83.75;40.90;;;;;;;-2.03;66.83;93034.84;5106389;28;20035;-59
2022/03/04 06:44:11;;;;;;;104.25;51.90;;;;;;;-2.14;66.29;93029.34;5109437;28;20027;-58
2022/03/04 06:46:36;;;;;;;89.50;48.13;;;;;;;-1.88;67.09;93051.72;5112228;28;20515;-58
2022/03/04 06:49:02;;;;;;;82.60;42.15;;;;;;;-1.85;66.67;93039.94;5100898;28;20692;-61
2022/03/04 06:51:28;;;;;;;65.05;36.67;;;;;;;-1.70;65.52;93039.81;5093855;28;20053;-61
2022/03/04 06:53:53;;;;;;;70.70;41.38;;;;;;;-1.54;66.22;93058.16;5076671;28;20413;-62
2022/03/04 06:56:19;;;;;;;48.38;30.33;;;;;;;-1.54;65.55;93053.47;5071920;28;20044;-61
2022/03/04 06:58:45;;;;;;;68.32;35.03;;;;;;;-1.47;66.20;93048.84;5070936;28;20035;-61
2022/03/04 07:01:10;;;;;;;50.78;27.33;;;;;;;-1.16;65.95;93059.66;5070314;28;20513;-61
2022/03/04 07:03:36;;;;;;;62.72;32.22;;;;;;;-0.87;65.27;93051.22;5085260;28;20053;-61
2022/03/04 07:06:02;;;;;;;51.55;29.85;;;;;;;-0.79;65.26;93050.25;5089433;28;20607;-61
2022/03/04 07:08:28;;;;;;;85.82;46.88;;;;;;;-0.85;64.28;93048.75;5089331;28;20528;-61
2022/03/04 07:10:53;;;;;;;39.03;21.45;;;;;;;-0.58;64.92;93039.25;5089533;28;20039;-61
2022/03/04 07:13:21;;;;;;;38.22;21.02;;;;;;;-0.10;65.25;93048.03;5090098;28;20031;-61
2022/03/04 07:15:47;;;;;;;52.90;29.83;;;;;;;0.18;63.60;93053.50;5089981;28;20778;-61
2022/03/04 07:18:13;;;;;;;43.03;26.13;;;;;;;0.82;61.49;93053.31;5082292;28;20111;-61
2022/03/04 07:20:40;;;;;;;63.75;37.53;;;;;;;0.48;61.09;93058.00;5070803;28;20115;-61
2022/03/04 07:23:06;;;;;;;42.70;26.15;;;;;;;0.63;61.63;93041.44;5070541;28;20085;-61
2022/03/04 07:25:31;;;;;;;69.03;35.42;;;;;;;1.00;61.49;93060.94;5070254;28;20037;-61
2022/03/04 07:27:57;;;;;;;30.13;18.63;;;;;;;0.60;61.37;93050.59;5070486;28;20031;-61
2022/03/04 07:30:22;;;;;;;33.15;20.48;;;;;;;0.60;61.84;93050.59;5069578;28;20575;-61
2022/03/04 07:32:49;;;;;;;28.70;16.73;;;;;;;0.40;63.08;93050.81;5070147;28;20029;-61
2022/03/04 07:35:14;;;;;;;18.75;13.30;;;;;;;0.75;62.10;93054.53;5070331;28;20040;-61
2022/03/04 07:37:41;;;;;;;26.77;17.38;;;;;;;0.68;61.00;93054.28;5070493;28;20032;-61
2022/03/04 07:40:08;;;;;;;29.80;19.23;;;;;;;0.74;62.70;93057.75;5076318;28;20054;-61
2022/03/04 07:42:34;;;;;;;38.85;23.25;;;;;;;1.06;61.68;93053.50;5110662;28;20029;-62
2022/03/04 07:45:00;;;;;;;43.60;26.27;;;;;;;1.33;62.16;93052.72;5100033;28;20031;-59
2022/03/04 07:47:25;;;;;;;57.33;31.77;;;;;;;1.60;60.93;93053.13;5090444;28;20099;-55
2022/03/04 07:49:51;;;;;;;55.38;28.13;;;;;;;1.78;60.87;93056.00;5089924;28;20024;-56
2022/03/04 07:52:16;;;;;;;33.63;20.67;;;;;;;1.87;59.48;93046.81;5090072;28;20052;-60
2022/03/04 07:54:43;;;;;;;34.30;21.00;;;;;;;2.01;59.64;93051.19;5089773;28;20494;-52
2022/03/04 07:57:09;;;;;;;39.47;21.17;;;;;;;2.28;58.71;93053.00;5088911;28;20536;-58
2022/03/04 07:59:35;;;;;;;48.80;26.52;;;;;;;2.62;58.84;93050.81;5088533;28;20047;-56
2022/03/04 08:02:00;;;;;;;53.70;28.65;;;;;;;2.76;57.95;93046.97;5089984;28;20047;-53
2022/03/04 08:04:26;;;;;;;47.63;29.05;;;;;;;3.00;56.49;93045.03;5088831;28;20089;-57
2022/03/04 08:06:51;;;;;;;44.63;27.23;;;;;;;3.22;56.87;93046.06;5087958;28;20024;-56
2022/03/04 08:09:17;;;;;;;62.00;31.23;;;;;;;3.49;56.35;93053.22;5088435;28;20066;-55
2022/03/04 08:11:44;;;;;;;53.65;27.48;;;;;;;3.75;54.40;93043.25;5088278;28;20028;-55
2022/03/04 08:14:10;;;;;;;39.67;25.30;;;;;;;4.26;53.67;93048.81;5089029;28;20024;-56
2022/03/04 08:16:35;;;;;;;46.63;29.13;;;;;;;4.76;51.93;93053.56;5088258;28;20021;-57
2022/03/04 08:19:05;;;;;;;58.35;33.70;;;;;;;5.14;52.14;93055.69;5088864;28;20020;-61
2022/03/04 08:21:31;;;;;;;89.63;48.65;;;;;;;5.51;50.17;93048.56;5089664;28;20720;-61
2022/03/04 08:23:56;;;;;;;103.57;59.30;;;;;;;5.78;49.37;93053.50;5089286;28;20123;-61
2022/03/04 08:26:21;;;;;;;94.85;50.42;;;;;;;6.34;49.14;93046.94;5089653;28;20020;-61
2022/03/04 08:28:47;;;;;;;72.28;40.30;;;;;;;7.00;46.86;93052.94;5089358;28;20031;-61
2022/03/04 08:31:13;;;;;;;59.95;39.40;;;;;;;7.81;44.80;93047.88;5088211;28;20020;-61
2022/03/04 08:33:43;;;;;;;39.95;28.45;;;;;;;8.73;42.52;93050.53;5089737;28;20141;-61
2022/03/04 08:36:09;;;;;;;29.67;21.55;;;;;;;9.20;40.03;93045.31;5089627;28;20039;-61
2022/03/04 08:38:35;;;;;;;37.78;26.27;;;;;;;9.70;39.90;93047.13;5089265;28;20039;-61
2022/03/04 08:41:00;;;;;;;43.53;31.08;;;;;;;10.07;39.37;93042.13;5099460;28;20032;-61
2022/03/04 08:43:26;;;;;;;32.63;20.83;;;;;;;10.31;39.03;93047.78;5109261;28;20035;-61
2022/03/04 08:45:52;;;;;;;24.27;18.13;;;;;;;10.52;38.19;93048.28;5109258;28;20015;-61
2022/03/04 08:48:18;;;;;;;16.80;13.43;;;;;;;10.91;37.24;93048.81;5109466;28;20032;-62
2022/03/04 08:50:43;;;;;;;18.67;13.15;;;;;;;11.48;35.21;93046.78;5109193;28;20027;-61
2022/03/04 08:53:09;;;;;;;17.30;13.05;;;;;;;11.43;33.51;93050.53;5109440;28;20023;-61
2022/03/04 08:55:34;;;;;;;20.48;13.35;;;;;;;11.17;34.17;93056.59;5108880;28;20044;-61
2022/03/04 08:58:00;;;;;;;21.55;13.40;;;;;;;10.79;34.49;93045.00;5109240;28;20588;-61
2022/03/04 09:00:28;;;;;;;24.98;14.00;;;;;;;10.96;35.87;93056.16;5109287;28;20030;-61
2022/03/04 09:02:54;;;;;;;22.02;13.57;;;;;;;11.45;35.51;93056.22;5099830;28;20027;-61
2022/03/04 09:05:19;;;;;;;15.88;13.07;;;;;;;11.85;33.11;93048.53;5088944;28;20040;-61
2022/03/04 09:07:45;;;;;;;15.27;11.63;;;;;;;11.95;33.81;93054.91;5088318;28;20019;-60
2022/03/04 09:10:11;;;;;;;19.45;12.90;;;;;;;12.46;33.22;93034.09;5088346;28;20066;-60
2022/03/04 09:12:36;;;;;;;20.05;12.20;;;;;;;12.70;31.26;93047.84;5088695;28;20020;-60
2022/03/04 09:15:04;;;;;;;15.85;12.90;;;;;;;12.94;32.83;93046.25;5088483;28;20024;-60
2022/03/04 09:17:29;;;;;;;15.20;11.00;;;;;;;12.46;31.34;93053.47;5077391;28;20047;-60
2022/03/04 09:19:55;;;;;;;15.93;11.93;;;;;;;12.73;31.87;93051.50;5088449;28;20032;-60
2022/03/04 09:22:20;;;;;;;19.55;10.93;;;;;;;11.83;32.01;93056.69;5088542;28;20032;-60
2022/03/04 09:24:46;;;;;;;15.60;11.10;;;;;;;11.62;32.20;93056.28;5088393;28;20078;-59
2022/03/04 09:27:11;;;;;;;16.85;12.27;;;;;;;11.95;33.31;93052.13;5088733;28;20024;-59
2022/03/04 09:29:37;;;;;;;17.98;12.90;;;;;;;12.23;32.25;93055.75;5087320;28;20497;-59
2022/03/04 09:32:03;;;;;;;16.73;12.23;;;;;;;12.47;31.98;93055.69;5088310;28;20103;-59
2022/03/04 09:34:28;;;;;;;14.45;11.68;;;;;;;12.19;33.17;93056.16;5088303;28;20032;-58
2022/03/04 09:36:53;;;;;;;14.55;11.00;;;;;;;13.73;31.28;93058.63;5087858;28;20028;-59
2022/03/04 09:39:19;;;;;;;18.23;12.45;;;;;;;14.65;30.25;93052.97;5088215;28;20020;-58
2022/03/04 09:41:46;;;;;;;14.70;11.10;;;;;;;15.19;29.32;93057.63;5089829;28;20483;-59
2022/03/04 09:44:15;;;;;;;12.68;10.02;;;;;;;16.12;26.05;93057.72;5088054;28;20023;-59
2022/03/04 09:46:42;;;;;;;16.88;12.50;;;;;;;16.21;24.83;93052.13;5088434;28;20073;-59
2022/03/04 09:49:08;;;;;;;15.30;11.85;;;;;;;16.03;26.80;93036.97;5096464;28;20088;-59
2022/03/04 09:51:35;;;;;;;16.25;12.20;;;;;;;16.65;25.77;93034.84;5108355;28;20032;-59
2022/03/04 09:54:00;;;;;;;19.27;12.25;;;;;;;17.39;25.95;93036.78;5108728;28;20098;-58
2022/03/04 09:56:26;;;;;;;16.02;11.77;;;;;;;17.81;24.96;93040.75;5092153;28;20643;-59
2022/03/04 09:58:51;;;;;;;9.10;7.57;;;;;;;17.75;22.89;93038.34;5076081;28;20123;-59
2022/03/04 10:01:17;;;;;;;17.17;7.68;;;;;;;17.87;24.44;93044.66;5079239;28;20031;-58
2022/03/04 10:03:45;;;;;;;11.85;7.20;;;;;;;15.84;24.94;93042.63;5080826;28;20433;-58
2022/03/04 10:06:11;;;;;;;10.25;7.20;;;;;;;17.40;23.90;93031.94;5076794;28;20026;-59
2022/03/04 10:08:39;;;;;;;13.07;9.77;;;;;;;18.70;22.82;93032.81;5074112;28;20409;-58
2022/03/04 10:11:04;;;;;;;15.45;7.88;;;;;;;18.71;22.57;93034.25;5070256;28;20561;-58
2022/03/04 10:13:44;;;;;;;9.50;7.47;;;;;;;18.66;22.51;93038.16;5068257;28;20028;-59
2022/03/04 10:16:21;;;;;;;14.18;10.15;;;;;;;19.02;23.08;93034.63;5067727;28;20031;-58
2022/03/04 10:19:04;;;;;;;16.17;7.90;;;;;;;19.27;23.16;93040.25;5080773;28;20111;-59
2022/03/04 10:21:59;;;;;;;16.23;9.73;;;;;;;19.56;21.07;93034.88;5089116;28;20024;-59
2022/03/04 10:24:31;;;;;;;13.07;10.75;;;;;;;19.12;21.52;93038.00;5042552;28;20531;-60
2022/03/04 10:27:09;;;;;;;13.73;10.15;;;;;;;19.33;22.78;93045.44;5071259;28;20031;-59
2022/03/04 10:29:38;;;;;;;14.55;9.15;;;;;;;18.63;21.51;93033.78;5070327;28;20111;-58
2022/03/04 10:32:06;;;;;;;14.65;9.27;;;;;;;18.01;24.21;93028.75;5071399;28;20028;-59
2022/03/04 10:34:59;;;;;;;12.57;9.20;;;;;;;17.52;21.99;93041.09;5071170;28;20052;-59
2022/03/04 10:37:54;;;;;;;12.73;8.45;;;;;;;17.79;23.08;93032.25;5091606;28;20032;-60
2022/03/04 10:40:20;;;;;;;13.15;9.30;;;;;;;18.06;23.04;93036.03;5091380;28;20032;-59
2022/03/04 10:42:53;;;;;;;9.02;8.05;;;;;;;18.27;23.63;93026.06;5091635;28;20192;-59
2022/03/04 10:45:25;;;;;;;15.25;8.63;;;;;;;18.00;25.28;93026.56;5091562;28;20589;-59
2022/03/04 10:47:51;;;;;;;13.95;9.55;;;;;;;18.01;22.86;93019.66;5091688;28;20107;-58
2022/03/04 10:50:20;;;;;;;15.55;9.63;;;;;;;17.73;23.35;93017.94;5079986;28;20025;-58
2022/03/04 10:52:51;;;;;;;12.88;11.15;;;;;;;18.33;24.06;93024.34;5069772;28;20713;-49
2022/03/04 10:55:34;;;;;;;20.20;10.80;;;;;;;18.38;22.97;93014.13;5078390;28;20031;-50
2022/03/04 10:58:05;;;;;;;22.60;12.13;;;;;;;18.92;22.48;93006.84;5091580;28;20146;-54
2022/03/04 11:00:36;;;;;;;14.13;10.07;;;;;;;18.93;22.68;93001.94;5092176;28;20032;-54
2022/03/04 11:03:03;;;;;;;12.90;9.35;;;;;;;18.89;23.60;93002.44;5081901;28;20031;-56
2022/03/04 11:05:29;;;;;;;10.60;9.00;;;;;;;18.51;21.90;92991.16;5072303;28;20025;-54
2022/03/04 11:07:54;;;;;;;12.23;8.43;;;;;;;18.48;25.28;92995.91;5072071;28;20035;-54
2022/03/04 11:10:20;;;;;;;14.77;9.65;;;;;;;18.31;23.89;92993.47;5072291;28;20028;-52
2022/03/04 11:12:50;;;;;;;11.82;8.73;;;;;;;18.66;24.30;92987.81;5072175;28;20386;-50
2022/03/04 11:15:16;;;;;;;14.18;10.15;;;;;;;19.18;21.86;92987.97;5072205;28;20025;-51